Time;durP1;ratioP1;P1;durP2;ratioP2;P2;SDS_P1;SDS_P2;PMS_P1;PMS_P2;Temp;Humidity;BMP_temperature;BMP_pressure;BME280_temperature;BME280_humidity;BME280_pressure;Samples;Min_cycle;Max_cycle;Signal;HPM_P1;HPM_P2
2021/09/06 00:01:46;;;;;;;11.10;7.60;;;12.70;99.90;;;;;;5109804;28;20797;-83
2021/09/06 00:04:12;;;;;;;9.57;7.63;;;12.70;99.90;;;;;;5091904;28;20919;-83
2021/09/06 00:06:39;;;;;;;9.18;7.80;;;12.70;99.90;;;;;;5110360;28;20370;-85
2021/09/06 00:09:05;;;;;;;9.95;7.97;;;12.70;99.90;;;;;;5110201;28;20367;-85
2021/09/06 00:11:31;;;;;;;10.68;8.02;;;12.70;99.90;;;;;;5110195;28;20431;-85
2021/09/06 00:13:56;;;;;;;10.90;8.57;;;12.60;99.90;;;;;;5110272;28;20371;-83
2021/09/06 00:16:22;;;;;;;9.37;7.37;;;12.60;99.90;;;;;;5110118;28;20363;-82
2021/09/06 00:18:47;;;;;;;9.25;8.20;;;12.50;99.90;;;;;;5110186;28;20367;-86
2021/09/06 00:21:13;;;;;;;9.03;7.97;;;12.40;99.90;;;;;;5110088;28;20962;-83
2021/09/06 00:23:39;;;;;;;9.73;7.97;;;12.40;99.90;;;;;;5109959;28;20371;-83
2021/09/06 00:26:05;;;;;;;10.80;7.60;;;12.30;99.90;;;;;;5091780;28;20371;-84
2021/09/06 00:28:31;;;;;;;9.67;8.00;;;12.20;99.90;;;;;;5091800;28;20453;-85
2021/09/06 00:30:57;;;;;;;9.47;7.43;;;12.10;99.90;;;;;;5110153;28;20565;-83
2021/09/06 00:33:23;;;;;;;11.02;7.68;;;12.10;99.90;;;;;;5113796;28;20367;-85
2021/09/06 00:35:49;;;;;;;11.83;8.00;;;12.10;99.90;;;;;;5113818;28;20876;-82
2021/09/06 00:38:20;;;;;;;11.30;8.40;;;12.00;99.90;;;;;;5095429;28;20467;-82
2021/09/06 00:40:47;;;;;;;10.75;8.38;;;12.00;99.90;;;;;;5113376;28;20471;-83
2021/09/06 00:43:13;;;;;;;9.07;7.68;;;11.90;99.90;;;;;;5113588;28;20374;-85
2021/09/06 00:45:40;;;;;;;10.07;7.78;;;11.80;99.90;;;;;;5113154;28;20432;-84
2021/09/06 00:48:06;;;;;;;11.60;7.75;;;11.80;99.90;;;;;;5095325;28;20394;-82
2021/09/06 00:50:33;;;;;;;11.15;8.15;;;11.70;99.90;;;;;;5113436;28;20371;-86
2021/09/06 00:53:00;;;;;;;9.10;7.90;;;11.70;99.90;;;;;;5095070;28;21005;-85
2021/09/06 00:55:27;;;;;;;9.70;7.95;;;11.70;99.90;;;;;;5113342;28;20866;-83
2021/09/06 00:57:53;;;;;;;9.82;8.27;;;11.70;99.90;;;;;;5113330;28;20454;-82
2021/09/06 01:00:19;;;;;;;11.75;8.55;;;11.60;99.90;;;;;;5095112;28;20485;-85
2021/09/06 01:02:45;;;;;;;10.57;7.47;;;11.60;99.90;;;;;;5095165;28;20414;-82
2021/09/06 01:05:12;;;;;;;8.65;7.65;;;11.50;99.90;;;;;;5094656;28;20411;-85
2021/09/06 01:07:38;;;;;;;10.90;7.40;;;11.40;99.90;;;;;;5094678;28;20375;-83
2021/09/06 01:10:07;;;;;;;8.03;7.17;;;11.40;99.90;;;;;;5113134;28;20905;-84
2021/09/06 01:12:33;;;;;;;10.30;7.45;;;11.40;99.90;;;;;;5112857;28;20412;-82
2021/09/06 01:14:59;;;;;;;8.95;7.35;;;11.30;99.90;;;;;;5112663;28;20882;-83
2021/09/06 01:17:24;;;;;;;10.15;7.80;;;11.30;99.90;;;;;;5112808;28;20363;-83
2021/09/06 01:19:50;;;;;;;8.20;7.03;;;11.30;99.90;;;;;;5112947;28;20387;-85
2021/09/06 01:22:18;;;;;;;10.63;6.90;;;11.20;99.90;;;;;;5094611;28;20379;-83
2021/09/06 01:24:44;;;;;;;9.88;7.10;;;11.20;99.90;;;;;;5094196;28;20786;-83
2021/09/06 01:27:10;;;;;;;9.43;7.53;;;11.10;99.90;;;;;;5112550;28;20461;-84
2021/09/06 01:29:36;;;;;;;8.43;6.93;;;11.10;99.90;;;;;;5094552;28;20512;-84
2021/09/06 01:32:04;;;;;;;11.13;7.40;;;11.10;99.90;;;;;;5094513;28;20366;-85
2021/09/06 01:34:30;;;;;;;7.88;7.10;;;11.00;99.90;;;;;;5112076;28;20374;-83
2021/09/06 01:36:55;;;;;;;9.27;7.17;;;11.00;99.90;;;;;;5094272;28;20899;-85
2021/09/06 01:39:21;;;;;;;9.45;7.22;;;11.00;99.90;;;;;;5116315;28;20521;-82
2021/09/06 01:41:47;;;;;;;10.00;7.70;;;10.90;99.90;;;;;;5098164;28;20827;-84
2021/09/06 01:44:12;;;;;;;9.52;7.45;;;10.90;99.90;;;;;;5095829;28;20378;-85
2021/09/06 01:46:38;;;;;;;9.03;7.20;;;10.90;99.90;;;;;;5112349;28;20390;-85
2021/09/06 01:49:04;;;;;;;10.15;7.35;;;10.80;99.90;;;;;;5112275;28;20363;-82
2021/09/06 01:51:30;;;;;;;9.02;7.90;;;10.80;99.90;;;;;;5093849;28;20420;-84
2021/09/06 01:53:56;;;;;;;8.50;7.40;;;10.70;99.90;;;;;;5093678;28;20387;-82
2021/09/06 01:56:22;;;;;;;9.82;7.40;;;10.80;99.90;;;;;;5112114;28;20374;-85
2021/09/06 01:58:49;;;;;;;7.90;7.07;;;10.70;99.90;;;;;;5112186;28;20473;-85
2021/09/06 02:01:15;;;;;;;10.45;7.28;;;10.70;99.90;;;;;;5093640;28;20892;-83
2021/09/06 02:03:41;;;;;;;7.85;6.85;;;10.70;99.90;;;;;;5111590;28;20374;-83
2021/09/06 02:06:06;;;;;;;8.57;7.07;;;10.70;99.90;;;;;;5112580;28;20461;-85
2021/09/06 02:08:32;;;;;;;10.40;7.35;;;10.70;99.90;;;;;;5111942;28;20367;-83
2021/09/06 02:10:58;;;;;;;8.30;7.03;;;10.70;99.90;;;;;;5111650;28;20363;-85
2021/09/06 02:13:23;;;;;;;11.00;7.57;;;10.60;99.90;;;;;;5111504;28;20371;-84
2021/09/06 02:15:49;;;;;;;7.45;6.65;;;10.60;99.90;;;;;;5111853;28;20375;-85
2021/09/06 02:18:15;;;;;;;8.63;6.95;;;10.60;99.90;;;;;;5111558;28;20402;-84
2021/09/06 02:20:41;;;;;;;8.38;7.40;;;10.60;99.90;;;;;;5093396;28;20393;-84
2021/09/06 02:23:07;;;;;;;7.90;7.10;;;10.50;99.90;;;;;;5111386;28;20382;-84
2021/09/06 02:25:32;;;;;;;8.30;6.77;;;10.50;99.90;;;;;;5111595;28;21225;-85
2021/09/06 02:27:58;;;;;;;10.70;6.90;;;10.50;99.90;;;;;;5111663;28;20389;-84
2021/09/06 02:30:24;;;;;;;7.63;6.82;;;10.50;99.90;;;;;;5093116;28;20427;-83
2021/09/06 02:32:50;;;;;;;11.48;7.25;;;10.40;99.90;;;;;;5111541;28;20887;-84
2021/09/06 02:35:16;;;;;;;11.40;6.70;;;10.40;99.90;;;;;;5111521;28;20460;-83
2021/09/06 02:37:41;;;;;;;7.80;7.00;;;10.40;99.90;;;;;;5093010;28;20379;-85
2021/09/06 02:40:08;;;;;;;8.55;6.90;;;10.30;99.90;;;;;;5111179;28;20414;-83
2021/09/06 02:42:34;;;;;;;8.75;7.13;;;10.30;99.90;;;;;;5111339;28;20375;-85
2021/09/06 02:44:59;;;;;;;10.95;7.43;;;10.30;99.90;;;;;;5111063;28;20927;-84
2021/09/06 02:47:25;;;;;;;9.82;7.38;;;10.30;99.90;;;;;;5093244;28;20420;-84
2021/09/06 02:49:50;;;;;;;8.03;6.50;;;10.20;99.90;;;;;;5111079;28;20365;-83
2021/09/06 02:52:16;;;;;;;11.57;7.35;;;10.20;99.90;;;;;;5111225;28;20472;-84
2021/09/06 02:54:41;;;;;;;8.73;6.70;;;10.20;99.90;;;;;;5110984;28;20377;-83
2021/09/06 02:57:07;;;;;;;8.33;7.20;;;10.10;99.90;;;;;;5111244;28;20957;-85
2021/09/06 02:59:33;;;;;;;10.20;6.90;;;10.10;99.90;;;;;;5111121;28;20394;-85
2021/09/06 03:01:58;;;;;;;10.98;7.68;;;10.10;99.90;;;;;;5110885;28;20401;-85
2021/09/06 03:04:24;;;;;;;12.13;7.43;;;10.00;99.90;;;;;;5111244;28;20373;-83
2021/09/06 03:06:50;;;;;;;8.73;7.38;;;10.00;99.90;;;;;;5111353;28;20401;-85
2021/09/06 03:09:15;;;;;;;10.00;7.47;;;10.00;99.90;;;;;;5093250;28;20462;-85
2021/09/06 03:11:41;;;;;;;10.57;7.93;;;9.90;99.90;;;;;;5111723;28;20970;-84
2021/09/06 03:14:06;;;;;;;9.13;7.20;;;9.90;99.90;;;;;;5111514;28;20745;-85
2021/09/06 03:16:32;;;;;;;9.23;7.55;;;9.90;99.90;;;;;;5095070;28;20371;-85
2021/09/06 03:18:57;;;;;;;11.57;7.57;;;9.90;99.90;;;;;;5114465;28;20386;-84
2021/09/06 03:21:23;;;;;;;9.57;7.90;;;9.80;99.90;;;;;;5096873;28;20490;-83
2021/09/06 03:23:49;;;;;;;11.07;7.95;;;9.80;99.90;;;;;;5114568;28;20868;-86
2021/09/06 03:26:14;;;;;;;11.57;8.13;;;9.80;99.90;;;;;;5094496;28;20733;-85
2021/09/06 03:28:41;;;;;;;8.67;7.77;;;9.70;99.90;;;;;;5115590;28;20374;-85
2021/09/06 03:31:07;;;;;;;10.00;7.80;;;9.70;99.90;;;;;;5098970;28;20413;-85
2021/09/06 03:33:33;;;;;;;8.38;7.22;;;9.70;99.90;;;;;;5117314;28;20367;-82
2021/09/06 03:35:58;;;;;;;9.00;7.10;;;9.60;99.90;;;;;;5098488;28;20386;-82
2021/09/06 03:38:24;;;;;;;8.93;7.47;;;9.70;99.90;;;;;;5116903;28;20371;-85
2021/09/06 03:40:50;;;;;;;8.33;7.40;;;9.70;99.90;;;;;;5115375;28;20402;-86
2021/09/06 03:43:15;;;;;;;8.38;7.45;;;9.60;99.90;;;;;;5096993;28;20432;-84
2021/09/06 03:45:41;;;;;;;8.00;7.20;;;9.60;99.90;;;;;;5116582;28;20377;-82
2021/09/06 03:48:06;;;;;;;10.87;8.20;;;9.60;99.90;;;;;;5098932;28;20378;-83
2021/09/06 03:50:33;;;;;;;9.50;7.70;;;9.60;99.90;;;;;;5116212;28;20887;-83
2021/09/06 03:53:00;;;;;;;9.40;7.82;;;9.50;99.90;;;;;;5097411;28;20413;-82
2021/09/06 03:55:25;;;;;;;9.45;7.78;;;9.50;99.90;;;;;;5095535;28;20386;-84
2021/09/06 03:57:51;;;;;;;9.90;7.50;;;9.50;99.90;;;;;;5114765;28;20832;-85
2021/09/06 04:00:17;;;;;;;9.80;7.87;;;9.50;99.90;;;;;;5094892;28;20398;-84
2021/09/06 04:02:42;;;;;;;9.57;7.45;;;9.50;99.90;;;;;;5094530;28;20710;-86
2021/09/06 04:05:09;;;;;;;19.35;8.93;;;9.50;99.90;;;;;;5112641;28;20387;-86
2021/09/06 04:07:34;;;;;;;18.25;8.27;;;9.50;99.90;;;;;;5095989;28;20383;-87
2021/09/06 04:10:00;;;;;;;22.60;8.95;;;9.50;99.90;;;;;;5115880;28;20744;-85
2021/09/06 04:12:26;;;;;;;35.60;10.18;;;9.50;99.90;;;;;;5115778;28;20374;-87
2021/09/06 04:14:51;;;;;;;38.77;10.70;;;9.50;99.90;;;;;;5096975;28;20383;-86
2021/09/06 04:17:17;;;;;;;27.90;8.53;;;9.40;99.90;;;;;;5114864;28;20939;-86
2021/09/06 04:19:43;;;;;;;22.87;8.93;;;9.50;99.90;;;;;;5114705;28;20387;-84
2021/09/06 04:22:09;;;;;;;25.30;9.60;;;9.40;99.90;;;;;;5114621;28;20420;-87
2021/09/06 04:24:35;;;;;;;24.80;9.05;;;9.40;99.90;;;;;;5114341;28;20436;-87
2021/09/06 04:27:00;;;;;;;19.20;8.23;;;9.40;99.90;;;;;;5117901;28;20375;-83
2021/09/06 04:29:26;;;;;;;17.60;8.55;;;9.40;99.90;;;;;;5101483;28;20706;-85
2021/09/06 04:31:52;;;;;;;15.00;7.97;;;9.40;99.90;;;;;;5098463;28;20375;-86
2021/09/06 04:34:18;;;;;;;20.42;9.30;;;9.40;99.90;;;;;;5114453;28;20366;-87
2021/09/06 04:36:43;;;;;;;15.73;9.23;;;9.50;99.90;;;;;;5095985;28;20367;-84
2021/09/06 04:39:09;;;;;;;15.30;9.02;;;9.50;99.90;;;;;;5114151;28;20401;-83
2021/09/06 04:41:35;;;;;;;12.55;9.35;;;9.50;99.90;;;;;;5114070;28;20429;-83
2021/09/06 04:44:00;;;;;;;14.80;9.33;;;9.50;99.90;;;;;;5095628;28;20379;-84
2021/09/06 04:46:26;;;;;;;10.43;8.20;;;9.50;99.90;;;;;;5095457;28;20394;-86
2021/09/06 04:48:51;;;;;;;9.98;8.20;;;9.50;99.90;;;;;;5096303;28;20407;-84
2021/09/06 04:51:17;;;;;;;13.23;8.30;;;9.50;99.90;;;;;;5116941;28;20870;-84
2021/09/06 04:53:46;;;;;;;16.17;8.40;;;9.50;99.90;;;;;;5095769;28;20367;-86
2021/09/06 04:56:12;;;;;;;14.80;8.60;;;9.60;99.90;;;;;;5096106;28;20383;-83
2021/09/06 04:58:38;;;;;;;11.23;7.80;;;9.60;99.90;;;;;;5115067;28;20401;-85
2021/09/06 05:01:04;;;;;;;11.35;8.07;;;9.70;99.90;;;;;;5113024;28;20864;-83
2021/09/06 05:03:30;;;;;;;14.35;9.60;;;9.70;99.90;;;;;;5117733;28;20394;-83
2021/09/06 05:05:58;;;;;;;10.43;8.45;;;9.70;99.90;;;;;;5100689;28;20381;-84
2021/09/06 05:08:25;;;;;;;13.05;8.60;;;9.80;99.90;;;;;;5114730;28;20375;-83
2021/09/06 05:10:50;;;;;;;11.85;9.40;;;9.80;99.90;;;;;;5118155;28;20712;-84
2021/09/06 05:13:16;;;;;;;12.13;9.10;;;9.80;99.90;;;;;;5101629;28;20402;-84
2021/09/06 05:15:42;;;;;;;10.00;8.45;;;9.90;99.90;;;;;;5122761;28;20366;-82
2021/09/06 05:18:08;;;;;;;9.95;8.05;;;10.00;99.90;;;;;;5124521;28;20400;-82
2021/09/06 05:20:36;;;;;;;12.82;8.50;;;10.00;99.90;;;;;;5123884;28;20426;-85
2021/09/06 05:23:02;;;;;;;8.98;8.00;;;10.10;99.90;;;;;;5122226;28;20378;-82
2021/09/06 05:25:28;;;;;;;15.23;8.70;;;10.20;99.90;;;;;;5121534;28;20375;-83
2021/09/06 05:27:53;;;;;;;10.60;8.30;;;10.30;99.90;;;;;;5120498;28;20420;-83
2021/09/06 05:30:19;;;;;;;9.40;7.28;;;10.30;99.90;;;;;;5099197;28;20375;-84
2021/09/06 05:32:44;;;;;;;11.00;7.93;;;10.40;99.90;;;;;;5115722;28;20367;-81
2021/09/06 05:35:10;;;;;;;10.93;8.10;;;10.50;99.90;;;;;;5112573;28;20800;-82
2021/09/06 05:37:36;;;;;;;9.25;7.70;;;10.60;99.90;;;;;;5112601;28;20402;-85
2021/09/06 05:40:03;;;;;;;11.57;10.03;;;10.60;99.90;;;;;;5093342;28;20422;-82
2021/09/06 05:42:29;;;;;;;15.03;8.53;;;10.80;99.90;;;;;;5093674;28;20370;-84
2021/09/06 05:44:54;;;;;;;12.90;8.02;;;10.90;99.90;;;;;;5111671;28;20469;-84
2021/09/06 05:47:20;;;;;;;10.80;8.37;;;11.00;99.90;;;;;;5092987;28;20501;-82
2021/09/06 05:49:46;;;;;;;11.40;7.00;;;11.10;99.90;;;;;;5093026;28;20367;-85
2021/09/06 05:52:11;;;;;;;16.58;7.93;;;11.20;99.90;;;;;;5111851;28;20409;-84
2021/09/06 05:54:37;;;;;;;19.27;8.97;;;11.30;99.90;;;;;;5111407;28;20375;-83
2021/09/06 05:57:03;;;;;;;14.23;8.53;;;11.40;99.90;;;;;;5111170;28;20427;-83
2021/09/06 05:59:29;;;;;;;14.55;8.40;;;11.40;99.90;;;;;;5111212;28;20367;-85
2021/09/06 06:01:55;;;;;;;36.17;9.20;;;11.60;99.90;;;;;;5093387;28;20875;-84
2021/09/06 06:04:21;;;;;;;22.10;9.17;;;11.70;99.90;;;;;;5092896;28;20844;-83
2021/09/06 06:06:46;;;;;;;21.10;8.82;;;11.80;99.90;;;;;;5110254;28;20371;-82
2021/09/06 06:09:12;;;;;;;10.73;7.77;;;11.90;99.90;;;;;;5091779;28;20757;-84
2021/09/06 06:11:40;;;;;;;12.35;8.20;;;12.00;99.90;;;;;;5109942;28;20738;-84
2021/09/06 06:14:06;;;;;;;10.48;7.72;;;12.10;99.90;;;;;;5089357;28;20399;-84
2021/09/06 06:16:32;;;;;;;9.65;7.53;;;12.30;99.90;;;;;;5110170;28;20736;-84
2021/09/06 06:18:57;;;;;;;11.80;6.85;;;12.40;99.90;;;;;;5092105;28;20431;-82
2021/09/06 06:21:23;;;;;;;12.15;7.57;;;12.50;99.90;;;;;;5092427;28;20406;-84
2021/09/06 06:23:49;;;;;;;11.55;7.35;;;12.70;99.90;;;;;;5110782;28;20370;-84
2021/09/06 06:26:15;;;;;;;26.35;8.40;;;12.70;99.90;;;;;;5110759;28;20733;-83
2021/09/06 06:28:41;;;;;;;10.93;7.00;;;12.90;99.90;;;;;;5110082;28;20378;-86
2021/09/06 06:31:07;;;;;;;9.50;6.73;;;13.00;99.90;;;;;;5111092;28;20428;-84
2021/09/06 06:33:33;;;;;;;9.93;7.07;;;13.20;99.90;;;;;;5112009;28;20375;-84
2021/09/06 06:35:59;;;;;;;23.80;8.20;;;13.30;99.90;;;;;;5111038;28;20474;-85
2021/09/06 06:38:25;;;;;;;16.07;7.30;;;13.40;99.90;;;;;;5111424;28;20375;-83
2021/09/06 06:40:51;;;;;;;15.97;6.97;;;13.80;99.90;;;;;;5074061;28;20410;-83
2021/09/06 06:43:16;;;;;;;7.25;5.95;;;14.00;99.90;;;;;;5093582;28;20435;-84
2021/09/06 06:45:42;;;;;;;6.68;5.05;;;14.20;99.90;;;;;;5110964;28;20378;-82
2021/09/06 06:48:07;;;;;;;9.20;5.73;;;14.40;99.90;;;;;;5110579;28;20388;-83
2021/09/06 06:50:33;;;;;;;9.77;5.63;;;14.70;99.90;;;;;;5092102;28;20421;-82
2021/09/06 06:52:59;;;;;;;7.10;5.60;;;14.90;99.90;;;;;;5092054;28;20694;-82
2021/09/06 06:55:24;;;;;;;11.60;6.03;;;15.10;99.90;;;;;;5110459;28;20458;-84
2021/09/06 06:57:50;;;;;;;8.30;5.50;;;15.30;99.90;;;;;;5110762;28;20867;-82
2021/09/06 07:00:16;;;;;;;9.13;5.93;;;15.50;99.90;;;;;;5110587;28;20442;-84
2021/09/06 07:02:41;;;;;;;8.90;5.45;;;15.70;99.90;;;;;;5110486;28;20371;-83
2021/09/06 07:05:09;;;;;;;9.33;5.73;;;16.00;99.90;;;;;;5107958;28;20367;-84
2021/09/06 07:07:35;;;;;;;8.53;5.40;;;16.20;99.90;;;;;;5111031;28;20371;-84
2021/09/06 07:10:01;;;;;;;8.52;5.15;;;16.40;99.90;;;;;;5092292;28;20374;-84
2021/09/06 07:12:26;;;;;;;7.43;4.95;;;16.50;99.90;;;;;;5110260;28;20379;-85
2021/09/06 07:14:53;;;;;;;7.37;5.23;;;16.70;99.90;;;;;;5108363;28;20367;-83
2021/09/06 07:17:19;;;;;;;6.15;5.32;;;16.80;99.90;;;;;;5112758;28;20439;-84
2021/09/06 07:19:44;;;;;;;9.00;5.40;;;17.00;99.90;;;;;;5110823;28;20726;-85
2021/09/06 07:22:10;;;;;;;19.75;5.82;;;17.10;99.90;;;;;;5092929;28;20417;-83
2021/09/06 07:24:37;;;;;;;7.63;5.83;;;17.20;99.90;;;;;;5105738;28;20390;-84
2021/09/06 07:27:03;;;;;;;6.45;4.97;;;17.20;99.90;;;;;;5091290;28;20725;-86
2021/09/06 07:29:28;;;;;;;8.20;5.10;;;17.30;99.90;;;;;;5108962;27;20386;-84
2021/09/06 07:31:55;;;;;;;7.37;5.20;;;17.50;99.90;;;;;;5111772;28;20795;-84
2021/09/06 07:34:20;;;;;;;5.93;4.60;;;17.60;99.90;;;;;;5088940;28;20375;-84
2021/09/06 07:36:46;;;;;;;10.17;4.93;;;17.70;99.90;;;;;;5110496;28;20382;-82
2021/09/06 07:39:16;;;;;;;6.05;4.57;;;17.80;99.90;;;;;;5111114;28;20367;-84
2021/09/06 07:41:42;;;;;;;8.17;5.07;;;17.70;99.90;;;;;;5113814;27;20395;-83
2021/09/06 07:44:09;;;;;;;8.50;4.78;;;17.80;99.90;;;;;;5096905;28;20464;-83
2021/09/06 07:46:34;;;;;;;8.00;5.13;;;18.00;99.90;;;;;;5114317;28;20799;-84
2021/09/06 07:49:00;;;;;;;7.32;4.75;;;18.20;99.90;;;;;;5115904;28;20370;-83
2021/09/06 07:51:26;;;;;;;15.80;5.83;;;18.30;99.90;;;;;;5114856;28;20379;-83
2021/09/06 07:53:51;;;;;;;9.30;4.53;;;18.50;99.90;;;;;;5114092;28;20379;-84
2021/09/06 07:56:17;;;;;;;9.57;4.87;;;18.60;99.90;;;;;;5115537;28;20805;-83
2021/09/06 07:58:42;;;;;;;7.28;4.60;;;18.70;99.90;;;;;;5099629;28;20948;-86
2021/09/06 08:01:08;;;;;;;11.13;5.40;;;18.90;99.90;;;;;;5114883;28;20956;-86
2021/09/06 08:03:34;;;;;;;38.67;7.63;;;19.00;99.90;;;;;;5115116;28;20367;-86
2021/09/06 08:06:00;;;;;;;12.17;5.20;;;19.00;99.90;;;;;;5098544;28;20379;-83
2021/09/06 08:08:25;;;;;;;8.95;5.05;;;19.00;99.90;;;;;;5115599;28;20713;-83
2021/09/06 08:10:52;;;;;;;7.37;4.93;;;19.10;99.90;;;;;;5114693;28;20427;-84
2021/09/06 08:13:18;;;;;;;8.25;4.90;;;19.30;99.90;;;;;;5114620;28;20374;-84
2021/09/06 08:15:43;;;;;;;7.97;5.28;;;19.50;99.90;;;;;;5096290;28;20937;-82
2021/09/06 08:18:10;;;;;;;6.20;4.60;;;19.50;99.90;;;;;;5099879;28;20379;-84
2021/09/06 08:20:35;;;;;;;7.63;5.28;;;19.50;99.90;;;;;;5097275;28;20465;-83
2021/09/06 08:23:01;;;;;;;7.57;5.10;;;19.50;99.90;;;;;;5097315;28;20408;-85
2021/09/06 08:25:27;;;;;;;10.15;4.70;;;19.60;99.90;;;;;;5095794;28;20418;-87
2021/09/06 08:27:53;;;;;;;6.67;4.50;;;19.70;99.90;;;;;;5096216;28;20390;-85
2021/09/06 08:30:21;;;;;;;9.00;5.27;;;19.90;99.90;;;;;;5113171;28;20871;-85
2021/09/06 08:32:47;;;;;;;8.82;5.43;;;20.00;99.90;;;;;;5113936;28;20581;-83
2021/09/06 08:35:13;;;;;;;8.57;5.30;;;20.20;99.90;;;;;;5114070;28;20393;-84
2021/09/06 08:37:39;;;;;;;8.52;5.00;;;20.30;99.90;;;;;;5097217;28;20390;-83
2021/09/06 08:40:07;;;;;;;7.53;4.87;;;20.30;99.90;;;;;;5098299;28;20780;-87
2021/09/06 08:42:32;;;;;;;10.18;5.53;;;20.30;99.90;;;;;;5095336;28;20412;-83
2021/09/06 08:44:58;;;;;;;9.82;5.20;;;19.90;99.90;;;;;;5094838;28;20795;-87
2021/09/06 08:47:24;;;;;;;7.13;5.83;;;19.30;99.90;;;;;;5114834;28;20448;-86
2021/09/06 08:49:51;;;;;;;6.30;5.13;;;18.90;99.90;;;;;;5095782;28;20378;-85
2021/09/06 08:52:17;;;;;;;6.85;5.22;;;19.00;99.90;;;;;;5098670;28;20394;-85
2021/09/06 08:54:43;;;;;;;8.10;5.18;;;19.20;99.90;;;;;;5096541;28;20367;-85
2021/09/06 08:57:09;;;;;;;15.50;5.63;;;19.50;99.90;;;;;;5096890;28;20892;-85
2021/09/06 08:59:35;;;;;;;7.17;5.00;;;19.70;99.90;;;;;;5114595;28;20720;-87
2021/09/06 09:02:00;;;;;;;7.47;5.13;;;19.70;99.90;;;;;;5116958;28;20371;-84
2021/09/06 09:04:28;;;;;;;7.72;5.60;;;19.70;99.90;;;;;;5116789;28;20934;-85
2021/09/06 09:06:56;;;;;;;8.32;5.07;;;19.70;99.90;;;;;;5096828;28;20438;-86
2021/09/06 09:09:24;;;;;;;7.05;5.47;;;19.70;99.90;;;;;;5096519;28;20387;-85
2021/09/06 09:12:07;;;;;;;8.90;5.07;;;19.60;99.90;;;;;;5093605;28;20736;-84
2021/09/06 09:14:34;;;;;;;6.50;5.35;;;19.70;99.90;;;;;;5113140;28;20379;-85
2021/09/06 09:17:01;;;;;;;8.32;5.47;;;19.80;99.90;;;;;;5095796;28;20374;-85
2021/09/06 09:19:27;;;;;;;8.60;5.40;;;20.00;99.90;;;;;;5113039;28;20385;-86
2021/09/06 09:21:58;;;;;;;7.05;5.28;;;20.30;99.90;;;;;;5112643;28;20407;-84
2021/09/06 09:24:24;;;;;;;10.27;5.65;;;20.30;99.90;;;;;;5095680;28;20383;-86
2021/09/06 09:27:01;;;;;;;9.73;5.68;;;20.20;99.90;;;;;;5092486;28;20948;-85
2021/09/06 09:29:28;;;;;;;6.63;5.28;;;20.40;99.90;;;;;;5095512;28;20387;-83
2021/09/06 09:32:02;;;;;;;8.90;5.18;;;20.70;99.90;;;;;;5111169;27;20477;-88
2021/09/06 09:34:30;;;;;;;8.13;5.43;;;21.00;99.90;;;;;;5094730;28;20770;-86
2021/09/06 09:36:57;;;;;;;8.13;5.40;;;21.20;99.90;;;;;;5117439;28;20426;-86
2021/09/06 09:39:23;;;;;;;7.05;5.10;;;21.10;99.90;;;;;;5096306;28;20367;-84
2021/09/06 09:41:52;;;;;;;6.50;5.30;;;21.20;99.90;;;;;;5114438;28;20466;-83
2021/09/06 09:44:25;;;;;;;6.45;5.03;;;21.30;99.90;;;;;;5096089;28;20374;-84
2021/09/06 09:46:59;;;;;;;7.28;5.45;;;21.50;99.90;;;;;;5092911;28;20386;-85
2021/09/06 09:49:26;;;;;;;7.70;5.07;;;21.70;99.90;;;;;;5113772;27;20379;-86
2021/09/06 09:51:52;;;;;;;7.55;5.63;;;21.70;99.90;;;;;;5095088;28;20967;-87
2021/09/06 09:54:19;;;;;;;8.90;5.82;;;21.30;99.90;;;;;;5099160;27;20400;-84
2021/09/06 09:56:46;;;;;;;7.60;5.38;;;21.10;99.90;;;;;;5112749;28;20532;-83
2021/09/06 09:59:16;;;;;;;8.25;5.20;;;21.10;99.90;;;;;;5112587;27;20375;-86
2021/09/06 10:01:55;;;;;;;9.25;5.80;;;21.20;99.90;;;;;;5094294;28;20406;-86
2021/09/06 10:04:24;;;;;;;8.83;5.93;;;21.20;99.90;;;;;;5091712;28;20382;-87
2021/09/06 10:06:52;;;;;;;8.38;5.82;;;21.40;99.90;;;;;;5112920;27;20477;-87
2021/09/06 10:09:20;;;;;;;8.40;5.85;;;21.60;99.90;;;;;;5111063;28;20379;-85
2021/09/06 10:11:48;;;;;;;8.93;5.95;;;21.60;99.90;;;;;;5095025;28;20383;-85
2021/09/06 10:14:22;;;;;;;10.15;6.05;;;21.70;99.90;;;;;;5097329;28;20455;-84
2021/09/06 10:17:00;;;;;;;9.37;5.90;;;21.80;99.90;;;;;;5094483;28;20393;-86
2021/09/06 10:19:39;;;;;;;14.77;6.20;;;21.90;99.90;;;;;;5113476;28;20890;-86
2021/09/06 10:22:05;;;;;;;7.55;5.43;;;22.00;99.90;;;;;;5092865;28;20417;-85
2021/09/06 10:24:30;;;;;;;12.67;6.53;;;22.10;99.90;;;;;;5091179;28;20421;-84
2021/09/06 10:27:06;;;;;;;10.25;7.32;;;22.10;99.90;;;;;;5112586;28;20474;-83
2021/09/06 10:29:32;;;;;;;9.45;6.32;;;22.20;99.90;;;;;;5109418;28;20743;-84
2021/09/06 10:31:59;;;;;;;9.98;7.50;;;22.20;99.90;;;;;;5093043;28;20748;-85
2021/09/06 10:34:29;;;;;;;10.55;6.93;;;22.30;99.90;;;;;;5112868;28;20370;-86
2021/09/06 10:37:03;;;;;;;10.20;7.88;;;22.30;99.90;;;;;;5092631;28;20481;-86
2021/09/06 10:39:30;;;;;;;10.77;7.53;;;22.40;99.90;;;;;;5112573;28;21251;-85
2021/09/06 10:42:06;;;;;;;12.38;7.65;;;22.40;99.90;;;;;;5113066;28;20445;-84
2021/09/06 10:44:38;;;;;;;10.82;9.02;;;22.20;99.90;;;;;;5110780;28;20450;-87
2021/09/06 10:47:12;;;;;;;15.00;9.33;;;22.50;99.90;;;;;;5096232;28;20432;-87
2021/09/06 10:49:43;;;;;;;11.40;9.93;;;22.40;99.90;;;;;;5094602;28;20386;-84
2021/09/06 10:52:12;;;;;;;11.53;9.63;;;22.60;99.90;;;;;;5093392;28;20476;-87
2021/09/06 10:54:39;;;;;;;10.80;9.15;;;22.70;99.90;;;;;;5113286;28;20371;-85
2021/09/06 10:57:08;;;;;;;10.10;8.93;;;22.60;99.90;;;;;;5094460;28;20382;-86
2021/09/06 10:59:35;;;;;;;11.40;9.43;;;22.80;99.90;;;;;;5094653;28;20440;-85
2021/09/06 11:02:04;;;;;;;11.50;9.68;;;22.90;99.90;;;;;;5114515;27;20390;-86
2021/09/06 11:04:33;;;;;;;13.88;9.40;;;23.10;99.90;;;;;;5094214;28;20732;-85
2021/09/06 11:07:05;;;;;;;12.25;10.93;;;23.00;99.90;;;;;;5095354;28;20391;-86
2021/09/06 11:09:32;;;;;;;11.95;10.75;;;22.90;99.90;;;;;;5109201;28;20393;-85
2021/09/06 11:12:00;;;;;;;15.38;12.00;;;22.90;99.90;;;;;;5096239;28;20383;-83
2021/09/06 11:14:39;;;;;;;12.65;11.23;;;22.80;99.90;;;;;;5094821;28;20393;-85
2021/09/06 11:17:23;;;;;;;15.15;11.57;;;22.90;99.90;;;;;;5094996;28;20452;-84
2021/09/06 11:19:51;;;;;;;14.30;11.70;;;23.00;99.90;;;;;;5093971;28;20390;-84
2021/09/06 11:22:18;;;;;;;13.77;11.13;;;22.80;99.90;;;;;;5114504;28;20381;-83
2021/09/06 11:24:45;;;;;;;13.97;11.53;;;22.80;99.90;;;;;;5114335;28;20386;-84
2021/09/06 11:27:32;;;;;;;15.13;11.88;;;22.80;99.90;;;;;;5116747;28;20400;-83
2021/09/06 11:29:59;;;;;;;17.40;12.40;;;22.80;99.90;;;;;;5092252;28;20465;-86
2021/09/06 11:32:25;;;;;;;17.77;12.68;;;22.90;99.90;;;;;;5113969;28;20435;-86
2021/09/06 11:35:09;;;;;;;14.88;11.52;;;22.90;99.90;;;;;;5114245;28;20454;-87
2021/09/06 11:37:36;;;;;;;15.77;11.32;;;23.10;99.90;;;;;;5113255;28;20375;-87
2021/09/06 11:40:03;;;;;;;15.27;12.03;;;23.20;99.90;;;;;;5114209;28;20398;-85
2021/09/06 11:42:29;;;;;;;16.00;12.40;;;23.30;99.90;;;;;;5112503;28;20936;-85
2021/09/06 11:44:57;;;;;;;13.85;11.18;;;23.30;99.90;;;;;;5096763;28;20461;-84
2021/09/06 11:47:23;;;;;;;14.77;11.98;;;23.40;99.90;;;;;;5112456;28;20390;-86
2021/09/06 11:49:54;;;;;;;14.88;11.82;;;23.50;99.90;;;;;;5113616;28;20393;-88
2021/09/06 11:52:28;;;;;;;17.42;12.52;;;23.60;99.90;;;;;;5096457;28;20442;-84
2021/09/06 11:54:53;;;;;;;14.35;12.15;;;23.50;99.90;;;;;;5092300;28;20761;-84
2021/09/06 11:57:33;;;;;;;14.77;12.13;;;23.50;99.90;;;;;;5092999;28;20367;-85
2021/09/06 12:00:00;;;;;;;15.98;12.05;;;23.60;99.90;;;;;;5110864;28;20374;-85
2021/09/06 12:02:26;;;;;;;15.13;13.27;;;23.80;99.90;;;;;;5111914;28;20466;-83
2021/09/06 12:05:11;;;;;;;16.15;12.95;;;23.60;99.90;;;;;;5094140;28;20367;-84
2021/09/06 12:07:49;;;;;;;15.35;12.52;;;23.50;99.90;;;;;;5111401;28;20383;-85
2021/09/06 12:10:30;;;;;;;17.05;13.68;;;23.20;99.90;;;;;;5088109;28;20473;-83
2021/09/06 12:13:17;;;;;;;15.95;13.38;;;23.00;99.90;;;;;;5089092;28;20413;-90
2021/09/06 12:15:58;;;;;;;21.67;14.35;;;22.80;99.90;;;;;;5094647;28;20382;-86
2021/09/06 12:18:41;;;;;;;17.08;13.77;;;22.70;99.90;;;;;;5097009;28;20375;-89
2021/09/06 12:21:14;;;;;;;15.90;13.10;;;22.50;99.90;;;;;;5112166;28;20789;-86
2021/09/06 12:23:42;;;;;;;15.80;11.80;;;22.40;99.90;;;;;;5110747;28;20763;-86
2021/09/06 12:26:11;;;;;;;17.52;12.88;;;22.30;99.90;;;;;;5096377;28;20386;-88
2021/09/06 12:29:00;;;;;;;15.27;12.57;;;22.30;99.90;;;;;;5096311;28;20880;-89
2021/09/06 12:31:38;;;;;;;18.08;13.73;;;22.40;99.90;;;;;;5094080;28;20386;-87
2021/09/06 12:34:04;;;;;;;14.57;12.52;;;22.10;99.90;;;;;;5095435;28;20394;-82
2021/09/06 12:36:31;;;;;;;16.80;13.65;;;22.20;99.90;;;;;;5096164;28;20513;-87
2021/09/06 12:38:59;;;;;;;16.23;12.70;;;22.20;99.90;;;;;;5096872;28;20382;-87
2021/09/06 12:41:29;;;;;;;15.85;12.38;;;22.30;99.90;;;;;;5095343;28;20493;-86
2021/09/06 12:43:57;;;;;;;16.20;12.18;;;22.20;99.90;;;;;;5131743;27;20381;-89